Time;durP1;ratioP1;P1;durP2;ratioP2;P2;SDS_P1;SDS_P2;PMS_P1;PMS_P2;Temp;Humidity;BMP_temperature;BMP_pressure;BME280_temperature;BME280_humidity;BME280_pressure;Samples;Min_cycle;Max_cycle;Signal;HPM_P1;HPM_P2
2024/01/31 00:03:01;;;;;;;;;;;;;;;-8.91;58.11;95998.25;6340557;28;20302;-66
2024/01/31 00:06:06;;;;;;;;;;;;;;;-8.73;58.20;95997.34;6346599;28;20305;-67
2024/01/31 00:09:09;;;;;;;;;;;;;;;-8.71;58.27;95995.63;6345896;28;19920;-68
2024/01/31 00:12:13;;;;;;;;;;;;;;;-8.77;58.25;95975.25;6346271;28;19932;-67
2024/01/31 00:15:18;;;;;;;;;;;;;;;-8.72;59.02;95983.72;6346303;28;19923;-67
2024/01/31 00:18:21;;;;;;;;;;;;;;;-8.72;58.80;95982.88;6345560;28;19926;-68
2024/01/31 00:21:26;;;;;;;;;;;;;;;-8.60;59.12;95965.81;6346221;28;19923;-68
2024/01/31 00:24:30;;;;;;;;;;;;;;;-8.55;59.42;95970.03;6345935;28;19924;-67
2024/01/31 00:27:31;;;;;;;;;;;;;;;-8.30;60.30;95960.53;6344663;28;19927;-68
2024/01/31 00:30:34;;;;;;;;;;;;;;;-8.35;60.04;95968.19;6323765;28;20333;-67
2024/01/31 00:33:39;;;;;;;;;;;;;;;-8.35;60.34;95958.00;6320618;28;19924;-67
2024/01/31 00:36:40;;;;;;;;;;;;;;;-8.27;60.49;95951.13;6320415;28;20285;-67
2024/01/31 00:39:41;;;;;;;;;;;;;;;-8.13;60.44;95951.88;6319885;28;20009;-67
2024/01/31 00:42:45;;;;;;;;;;;;;;;-8.06;60.81;95947.59;6320387;28;19924;-67
2024/01/31 00:45:48;;;;;;;;;;;;;;;-8.08;60.76;95953.59;6320069;28;19924;-67
2024/01/31 00:48:52;;;;;;;;;;;;;;;-7.97;60.96;95950.09;6302655;28;19931;-67
2024/01/31 00:51:58;;;;;;;;;;;;;;;-7.97;60.78;95950.09;6319949;28;20386;-67
2024/01/31 00:55:00;;;;;;;;;;;;;;;-7.95;60.67;95955.19;6319173;28;20013;-67
2024/01/31 00:58:03;;;;;;;;;;;;;;;-7.91;60.90;95944.94;6319037;28;20401;-67
2024/01/31 01:01:04;;;;;;;;;;;;;;;-7.83;60.05;95954.25;6319285;28;20002;-66
2024/01/31 01:04:08;;;;;;;;;;;;;;;-7.78;60.58;95945.69;6336165;28;19923;-66
2024/01/31 01:07:12;;;;;;;;;;;;;;;-7.73;60.12;95951.63;6344603;28;20022;-67
2024/01/31 01:10:17;;;;;;;;;;;;;;;-7.71;60.26;95949.03;6345122;28;19950;-66
2024/01/31 01:13:23;;;;;;;;;;;;;;;-7.69;60.42;95940.50;6326688;28;19985;-67
2024/01/31 01:16:23;;;;;;;;;;;;;;;-7.63;60.14;95944.72;6344673;28;20290;-67
2024/01/31 01:19:27;;;;;;;;;;;;;;;-7.58;60.17;95944.69;6344677;28;19931;-68
2024/01/31 01:22:28;;;;;;;;;;;;;;;-7.55;60.29;95942.09;6344686;28;20407;-67
2024/01/31 01:25:30;;;;;;;;;;;;;;;-7.52;61.15;95936.94;6344052;28;19934;-68
2024/01/31 01:28:35;;;;;;;;;;;;;;;-7.48;60.93;95938.59;6344616;28;20020;-66
2024/01/31 01:31:36;;;;;;;;;;;;;;;-7.55;61.41;95931.88;6343600;28;19923;-67
2024/01/31 01:34:42;;;;;;;;;;;;;;;-7.60;61.36;95943.84;6344464;28;19924;-66
2024/01/31 01:37:48;;;;;;;;;;;;;;;-7.60;61.06;95938.72;6344436;28;19924;-68
2024/01/31 01:40:49;;;;;;;;;;;;;;;-7.54;61.54;95920.78;6344595;28;19931;-67
2024/01/31 01:43:51;;;;;;;;;;;;;;;-7.53;61.49;95909.69;6344556;28;19924;-68
2024/01/31 01:46:52;;;;;;;;;;;;;;;-7.47;61.63;95909.66;6344268;28;20455;-67
2024/01/31 01:49:55;;;;;;;;;;;;;;;-7.49;61.25;95906.25;6343818;28;20401;-67
2024/01/31 01:52:59;;;;;;;;;;;;;;;-7.51;61.22;95902.88;6344293;28;19930;-67
2024/01/31 01:56:04;;;;;;;;;;;;;;;-7.48;61.50;95902.84;6344073;28;20017;-68
2024/01/31 01:59:08;;;;;;;;;;;;;;;-7.51;61.95;95907.97;6344191;28;20342;-67
2024/01/31 02:02:10;;;;;;;;;;;;;;;-7.50;61.96;95909.66;6309004;28;19927;-67
2024/01/31 02:05:12;;;;;;;;;;;;;;;-7.49;61.91;95901.16;6344108;28;19935;-67
2024/01/31 02:08:18;;;;;;;;;;;;;;;-7.49;62.00;95901.16;6331509;28;20432;-67
2024/01/31 02:11:24;;;;;;;;;;;;;;;-7.47;62.55;95914.75;6349631;28;20345;-67
2024/01/31 02:14:27;;;;;;;;;;;;;;;-7.47;62.25;95907.09;6349300;28;20281;-68
2024/01/31 02:17:33;;;;;;;;;;;;;;;-7.46;61.39;95906.22;6347859;28;20310;-67
2024/01/31 02:20:35;;;;;;;;;;;;;;;-7.48;61.69;95903.66;6349386;28;20373;-67
2024/01/31 02:23:38;;;;;;;;;;;;;;;-7.48;62.25;95903.66;6348988;28;19931;-67
2024/01/31 02:26:42;;;;;;;;;;;;;;;-7.46;61.87;95907.06;6348236;28;19923;-67
2024/01/31 02:29:45;;;;;;;;;;;;;;;-7.45;61.70;95905.34;6342252;28;19924;-67
2024/01/31 02:32:47;;;;;;;;;;;;;;;-7.44;61.73;95904.50;6323034;28;20297;-68
2024/01/31 02:35:52;;;;;;;;;;;;;;;-7.44;61.50;95907.06;6323372;28;19931;-67
2024/01/31 02:38:56;;;;;;;;;;;;;;;-7.42;61.34;95907.88;6323411;28;19924;-67
2024/01/31 02:41:59;;;;;;;;;;;;;;;-7.33;61.47;95912.91;6323208;28;20397;-67
2024/01/31 02:45:00;;;;;;;;;;;;;;;-7.43;61.84;95906.19;6322733;28;19924;-68
2024/01/31 02:48:04;;;;;;;;;;;;;;;-7.40;61.33;95903.59;6322900;28;20027;-68
2024/01/31 02:51:08;;;;;;;;;;;;;;;-7.40;61.40;95911.28;6322987;28;19924;-68
2024/01/31 02:54:11;;;;;;;;;;;;;;;-7.43;61.60;95913.84;6322626;28;19928;-68
2024/01/31 02:57:13;;;;;;;;;;;;;;;-7.47;61.34;95912.22;6321807;28;20336;-66
2024/01/31 03:00:14;;;;;;;;;;;;;;;-7.44;61.77;95909.63;6321816;28;20069;-66
2024/01/31 03:03:15;;;;;;;;;;;;;;;-7.42;61.66;95918.09;6322589;28;19924;-68
2024/01/31 03:06:21;;;;;;;;;;;;;;;-7.39;61.54;95912.94;6322582;28;19923;-68
2024/01/31 03:09:27;;;;;;;;;;;;;;;-7.33;62.13;95910.34;6322459;28;20348;-67
2024/01/31 03:12:29;;;;;;;;;;;;;;;-7.26;62.27;95914.53;6322458;28;19928;-67
2024/01/31 03:15:32;;;;;;;;;;;;;;;-7.18;61.86;95916.16;6322325;28;19924;-67
2024/01/31 03:18:33;;;;;;;;;;;;;;;-7.13;61.65;95909.25;6321694;28;19924;-67
2024/01/31 03:21:34;;;;;;;;;;;;;;;-7.06;61.53;95913.47;6321935;28;19924;-67
2024/01/31 03:24:35;;;;;;;;;;;;;;;-7.02;61.95;95908.31;6322213;28;19924;-68
2024/01/31 03:27:39;;;;;;;;;;;;;;;-6.99;61.26;95912.53;6321409;28;20069;-68
2024/01/31 03:30:40;;;;;;;;;;;;;;;-7.01;61.33;95909.13;6321087;28;19931;-67
2024/01/31 03:33:43;;;;;;;;;;;;;;;-7.02;61.18;95917.66;6321750;28;19924;-68
2024/01/31 03:36:46;;;;;;;;;;;;;;;-7.02;61.06;95912.53;6321350;28;19924;-66
2024/01/31 03:39:48;;;;;;;;;;;;;;;-7.01;60.78;95906.59;6321537;28;19924;-68
2024/01/31 03:42:49;;;;;;;;;;;;;;;-7.05;61.71;95917.69;6321038;28;19934;-69
2024/01/31 03:45:52;;;;;;;;;;;;;;;-7.06;61.66;95913.47;6321316;28;20385;-67
2024/01/31 03:48:56;;;;;;;;;;;;;;;-7.07;62.09;95909.22;6321914;28;20389;-67
2024/01/31 03:51:59;;;;;;;;;;;;;;;-7.06;61.79;95916.00;6321001;28;19924;-67
2024/01/31 03:55:01;;;;;;;;;;;;;;;-6.99;62.60;95917.66;6322197;28;20011;-66
2024/01/31 03:58:05;;;;;;;;;;;;;;;-6.92;62.35;95913.28;6340916;28;19947;-66
2024/01/31 04:01:07;;;;;;;;;;;;;;;-6.87;62.60;95912.38;6339125;28;19931;-66
2024/01/31 04:04:10;;;;;;;;;;;;;;;-6.79;61.10;95912.28;6339554;28;19931;-67
2024/01/31 04:07:13;;;;;;;;;;;;;;;-6.76;61.72;95917.38;6324202;28;19924;-67
2024/01/31 04:10:17;;;;;;;;;;;;;;;-6.70;61.35;95919.00;6336896;28;19924;-65
2024/01/31 04:13:21;;;;;;;;;;;;;;;-6.63;61.82;95931.66;6321487;28;19935;-67
2024/01/31 04:16:23;;;;;;;;;;;;;;;-6.63;61.61;95930.84;6338635;28;19924;-68
2024/01/31 04:19:24;;;;;;;;;;;;;;;-6.64;61.87;95924.03;6332331;28;19928;-67
2024/01/31 04:22:26;;;;;;;;;;;;;;;-6.61;61.34;95929.09;6302577;28;19924;-68
2024/01/31 04:25:30;;;;;;;;;;;;;;;-6.58;61.19;95929.91;6320624;28;20442;-68
2024/01/31 04:28:33;;;;;;;;;;;;;;;-6.56;61.42;95932.47;6319851;28;20015;-67
2024/01/31 04:31:34;;;;;;;;;;;;;;;-6.53;61.36;95949.47;6319898;28;19920;-68
2024/01/31 04:34:38;;;;;;;;;;;;;;;-6.50;61.25;95949.44;6319816;28;20488;-67
2024/01/31 04:37:39;;;;;;;;;;;;;;;-6.43;61.68;95941.63;6320549;28;19920;-68
2024/01/31 04:40:46;;;;;;;;;;;;;;;-6.32;60.97;95941.50;6320895;28;20063;-68
2024/01/31 04:43:47;;;;;;;;;;;;;;;-6.20;60.90;95940.47;6320305;28;19924;-67
2024/01/31 04:46:49;;;;;;;;;;;;;;;-6.10;60.95;95949.72;6319132;28;20301;-67
2024/01/31 04:49:50;;;;;;;;;;;;;;;-5.97;60.98;95940.13;6319092;28;20389;-67
2024/01/31 04:52:51;;;;;;;;;;;;;;;-5.92;61.11;95949.41;6318819;28;19928;-68
2024/01/31 04:55:56;;;;;;;;;;;;;;;-5.98;61.01;95949.53;6319632;28;19928;-68
2024/01/31 04:58:59;;;;;;;;;;;;;;;-5.93;61.34;95945.16;6319889;28;19924;-67
2024/01/31 05:02:03;;;;;;;;;;;;;;;-5.90;61.07;95950.25;6319971;28;20393;-68
2024/01/31 05:05:04;;;;;;;;;;;;;;;-5.80;60.94;95952.66;6320020;28;19951;-67
2024/01/31 05:08:05;;;;;;;;;;;;;;;-5.66;60.70;95954.16;6301851;28;19924;-68
2024/01/31 05:11:07;;;;;;;;;;;;;;;-5.52;60.41;95965.88;6319004;28;19959;-68
2024/01/31 05:14:11;;;;;;;;;;;;;;;-5.40;60.67;95959.72;6319913;28;19924;-68
2024/01/31 05:17:16;;;;;;;;;;;;;;;-5.25;60.36;95960.28;6319657;28;19927;-67
2024/01/31 05:20:18;;;;;;;;;;;;;;;-5.21;60.38;95961.06;6319497;28;19924;-68
2024/01/31 05:23:22;;;;;;;;;;;;;;;-5.03;60.11;95965.03;6319362;28;19984;-68
2024/01/31 05:26:24;;;;;;;;;;;;;;;-5.04;59.54;95964.19;6301550;28;20332;-67
2024/01/31 05:29:25;;;;;;;;;;;;;;;-5.07;59.86;95953.97;6318386;28;19960;-68
2024/01/31 05:32:26;;;;;;;;;;;;;;;-5.11;59.35;95962.59;6317999;28;19932;-68
2024/01/31 05:35:33;;;;;;;;;;;;;;;-5.04;59.20;95964.19;6319064;28;20005;-67
2024/01/31 05:38:37;;;;;;;;;;;;;;;-4.95;59.46;95960.59;6319296;28;19924;-67
2024/01/31 05:41:40;;;;;;;;;;;;;;;-4.90;59.18;95974.16;6317964;28;19977;-68
2024/01/31 05:44:41;;;;;;;;;;;;;;;-4.87;59.24;95965.56;6318260;28;20401;-67
2024/01/31 05:47:42;;;;;;;;;;;;;;;-4.85;59.05;95974.09;6318990;28;19931;-68
2024/01/31 05:50:46;;;;;;;;;;;;;;;-4.68;59.26;95976.34;6318948;28;19926;-67
2024/01/31 05:53:48;;;;;;;;;;;;;;;-4.79;58.72;95969.69;6318852;28;20027;-68
2024/01/31 05:56:52;;;;;;;;;;;;;;;-4.61;59.24;95977.91;6318586;28;19928;-67
2024/01/31 05:59:55;;;;;;;;;;;;;;;-4.53;58.93;95976.88;6318697;28;19931;-67
2024/01/31 06:02:56;;;;;;;;;;;;;;;-4.41;59.00;95983.50;6300793;28;19954;-67
2024/01/31 06:06:00;;;;;;;;;;;;;;;-4.21;58.75;95988.22;6317912;28;19924;-67
2024/01/31 06:09:00;;;;;;;;;;;;;;;-4.07;58.44;95983.63;6318951;28;19924;-68
2024/01/31 06:12:01;;;;;;;;;;;;;;;-3.96;58.37;95982.50;6318015;28;20451;-68
2024/01/31 06:15:03;;;;;;;;;;;;;;;-3.85;58.06;95981.44;6318715;28;20316;-68
2024/01/31 06:18:09;;;;;;;;;;;;;;;-3.72;58.29;95989.69;6318687;28;19920;-68
2024/01/31 06:21:10;;;;;;;;;;;;;;;-3.66;58.06;95992.09;6318638;28;19924;-68
2024/01/31 06:24:11;;;;;;;;;;;;;;;-3.50;57.73;95991.75;6318407;28;20318;-69
2024/01/31 06:27:14;;;;;;;;;;;;;;;-3.28;57.50;95995.50;6318173;28;20350;-67
2024/01/31 06:30:19;;;;;;;;;;;;;;;-3.02;56.87;96001.72;6328788;28;20137;-68
2024/01/31 06:33:27;;;;;;;;;;;;;;;-2.86;57.10;96009.88;6342882;28;20301;-68
2024/01/31 06:36:33;;;;;;;;;;;;;;;-2.76;56.11;96004.47;6344007;28;19931;-68
2024/01/31 06:39:34;;;;;;;;;;;;;;;-2.60;56.46;96006.66;6343366;28;20392;-68
2024/01/31 06:42:37;;;;;;;;;;;;;;;-2.60;55.96;96010.06;6343129;28;20457;-67
2024/01/31 06:45:39;;;;;;;;;;;;;;;-2.41;55.33;96012.94;6343285;28;19924;-67
2024/01/31 06:48:42;;;;;;;;;;;;;;;-2.42;54.93;96019.00;6342382;28;19924;-68
2024/01/31 06:51:47;;;;;;;;;;;;;;;-2.57;54.38;96029.72;6344364;28;20393;-67
2024/01/31 06:54:50;;;;;;;;;;;;;;;-2.53;54.22;96033.91;6347952;28;19931;-67
2024/01/31 06:57:57;;;;;;;;;;;;;;;-2.51;54.36;96032.16;6348211;28;20311;-68
2024/01/31 07:01:04;;;;;;;;;;;;;;;-2.47;54.08;96041.47;6330494;28;19924;-68
2024/01/31 07:04:08;;;;;;;;;;;;;;;-2.53;53.73;96037.31;6347846;28;20396;-69
2024/01/31 07:07:09;;;;;;;;;;;;;;;-2.56;54.48;96049.44;6346692;28;19924;-67
2024/01/31 07:10:10;;;;;;;;;;;;;;;-2.46;54.30;96053.47;6346972;28;20369;-69
2024/01/31 07:13:11;;;;;;;;;;;;;;;-2.37;53.87;96045.50;6346709;28;19947;-68
2024/01/31 07:16:14;;;;;;;;;;;;;;;-2.16;53.94;96053.50;6347649;28;19923;-68
2024/01/31 07:19:15;;;;;;;;;;;;;;;-1.94;53.80;96049.44;6328513;28;20005;-68
2024/01/31 07:22:16;;;;;;;;;;;;;;;-1.79;53.49;96058.44;6346366;28;19923;-67
2024/01/31 07:25:20;;;;;;;;;;;;;;;-1.72;53.13;96054.81;6346470;28;19924;-67
2024/01/31 07:28:27;;;;;;;;;;;;;;;-1.77;52.94;96050.69;6347285;28;19928;-67
2024/01/31 07:31:30;;;;;;;;;;;;;;;-1.71;53.08;96055.66;6346039;28;19923;-66
2024/01/31 07:34:35;;;;;;;;;;;;;;;-1.57;53.17;96048.34;6346540;28;20270;-70
2024/01/31 07:37:39;;;;;;;;;;;;;;;-1.52;52.98;96050.78;6347420;28;19923;-68
2024/01/31 07:40:42;;;;;;;;;;;;;;;-1.66;52.78;96048.63;6347180;28;19931;-67
2024/01/31 07:43:43;;;;;;;;;;;;;;;-1.71;52.97;96053.91;6345660;28;19924;-68
2024/01/31 07:46:49;;;;;;;;;;;;;;;-1.89;53.10;96057.88;6346107;28;19924;-69
2024/01/31 07:49:50;;;;;;;;;;;;;;;-1.94;53.55;96054.59;6327581;28;20328;-67
2024/01/31 07:52:51;;;;;;;;;;;;;;;-1.88;52.91;96057.00;6346022;28;19923;-67
2024/01/31 07:55:55;;;;;;;;;;;;;;;-1.81;53.03;96048.19;6345577;28;20380;-67
2024/01/31 07:58:58;;;;;;;;;;;;;;;-1.74;53.00;96055.75;6345823;28;19923;-68
2024/01/31 08:02:01;;;;;;;;;;;;;;;-1.86;53.32;96052.63;6345946;28;19924;-68
2024/01/31 08:05:05;;;;;;;;;;;;;;;-1.86;53.71;96057.78;6346452;28;19923;-68
2024/01/31 08:08:06;;;;;;;;;;;;;;;-1.92;53.24;96067.44;6346093;28;19947;-68
2024/01/31 08:11:08;;;;;;;;;;;;;;;-1.77;53.11;96067.00;6345171;28;19923;-68
2024/01/31 08:14:12;;;;;;;;;;;;;;;-1.88;53.04;96069.88;6346370;28;20460;-68
2024/01/31 08:17:16;;;;;;;;;;;;;;;-1.67;52.70;96070.13;6345659;28;19950;-68
2024/01/31 08:20:17;;;;;;;;;;;;;;;-1.70;52.92;96081.41;6345056;28;19924;-68
2024/01/31 08:23:18;;;;;;;;;;;;;;;-1.84;52.80;96071.50;6344407;28;20335;-69
2024/01/31 08:26:22;;;;;;;;;;;;;;;-1.73;53.05;96073.75;6345274;28;19927;-68
2024/01/31 08:29:23;;;;;;;;;;;;;;;-1.47;52.45;96075.56;6341747;28;19942;-68
2024/01/31 08:32:24;;;;;;;;;;;;;;;-1.37;52.26;96074.38;6320197;28;19920;-69
2024/01/31 08:35:25;;;;;;;;;;;;;;;-1.40;52.24;96077.06;6320465;28;19924;-68
2024/01/31 08:38:29;;;;;;;;;;;;;;;-1.32;52.53;96083.72;6320468;28;19924;-70
2024/01/31 08:41:33;;;;;;;;;;;;;;;-1.20;52.33;96073.00;6320399;28;19920;-69
2024/01/31 08:44:34;;;;;;;;;;;;;;;-1.18;52.44;96071.25;6319523;28;19931;-69
2024/01/31 08:47:37;;;;;;;;;;;;;;;-0.88;52.23;96073.72;6319668;28;19924;-67
2024/01/31 08:50:40;;;;;;;;;;;;;;;-0.66;51.20;96077.28;6320259;28;20465;-68
2024/01/31 08:53:44;;;;;;;;;;;;;;;-0.76;51.10;96078.50;6320054;28;19924;-68
2024/01/31 08:56:45;;;;;;;;;;;;;;;-0.91;51.94;96085.84;6318244;28;19931;-68
2024/01/31 08:59:46;;;;;;;;;;;;;;;-0.98;52.16;96078.34;6319222;28;19923;-68
2024/01/31 09:02:49;;;;;;;;;;;;;;;-1.09;51.70;96083.84;6319138;28;20620;-67
2024/01/31 09:05:53;;;;;;;;;;;;;;;-1.21;51.91;96081.66;6318690;28;19955;-67
2024/01/31 09:08:57;;;;;;;;;;;;;;;-1.25;52.49;96090.38;6320176;28;19924;-68
2024/01/31 09:11:58;;;;;;;;;;;;;;;-1.29;52.20;96088.78;6319661;28;19926;-68
2024/01/31 09:15:01;;;;;;;;;;;;;;;-1.16;52.05;96095.25;6319164;28;19930;-68
2024/01/31 09:18:04;;;;;;;;;;;;;;;-1.00;51.93;96090.47;6318785;28;20069;-69
2024/01/31 09:21:08;;;;;;;;;;;;;;;-0.94;51.34;96088.50;6318948;28;20014;-67
2024/01/31 09:24:12;;;;;;;;;;;;;;;-0.77;51.31;96094.88;6319625;28;19930;-68
2024/01/31 09:27:19;;;;;;;;;;;;;;;-0.83;51.39;96093.34;6319422;28;19924;-68
2024/01/31 09:30:20;;;;;;;;;;;;;;;-0.84;51.25;96090.81;6317952;28;19931;-68
2024/01/31 09:33:21;;;;;;;;;;;;;;;-0.91;51.45;96091.03;6318683;28;19924;-68
2024/01/31 09:36:23;;;;;;;;;;;;;;;-1.09;51.56;96101.91;6318547;28;19920;-68
2024/01/31 09:39:25;;;;;;;;;;;;;;;-1.24;51.48;96087.75;6318411;28;20328;-68
2024/01/31 09:42:28;;;;;;;;;;;;;;;-1.33;51.29;96088.06;6317616;28;20519;-67
2024/01/31 09:45:31;;;;;;;;;;;;;;;-1.64;52.25;96093.28;6318877;28;19931;-68
2024/01/31 09:48:35;;;;;;;;;;;;;;;-1.49;52.22;96092.81;6318401;28;19928;-68
2024/01/31 09:51:39;;;;;;;;;;;;;;;-1.45;51.61;96099.56;6318399;28;19942;-68
2024/01/31 09:54:42;;;;;;;;;;;;;;;-1.50;51.79;96103.16;6318770;28;19928;-68
2024/01/31 09:57:44;;;;;;;;;;;;;;;-1.43;51.98;96097.78;6318289;28;20362;-68
2024/01/31 10:00:45;;;;;;;;;;;;;;;-1.45;51.94;96098.72;6317838;28;20409;-69
2024/01/31 10:03:47;;;;;;;;;;;;;;;-1.51;51.87;96110.06;6317880;28;19931;-67
2024/01/31 10:06:53;;;;;;;;;;;;;;;-1.48;52.32;96109.13;6318672;28;20043;-67
2024/01/31 10:09:54;;;;;;;;;;;;;;;-1.34;52.12;96117.31;6317770;28;20258;-68
2024/01/31 10:13:01;;;;;;;;;;;;;;;-1.24;51.75;96115.31;6318924;28;19924;-69
2024/01/31 10:16:04;;;;;;;;;;;;;;;-1.14;51.54;96119.28;6318794;28;20393;-67
2024/01/31 10:19:08;;;;;;;;;;;;;;;-0.88;51.46;96120.22;6318880;28;19924;-67
2024/01/31 10:22:09;;;;;;;;;;;;;;;-0.83;50.91;96124.34;6317735;28;19931;-67
2024/01/31 10:25:15;;;;;;;;;;;;;;;-0.88;50.51;96127.94;6317967;28;20409;-68
2024/01/31 10:28:21;;;;;;;;;;;;;;;-0.96;50.59;96133.38;6304089;28;20049;-67
2024/01/31 10:31:24;;;;;;;;;;;;;;;-1.10;51.09;96131.22;6323483;28;20362;-68
2024/01/31 10:34:30;;;;;;;;;;;;;;;-1.11;50.94;96139.00;6323363;28;19963;-68
2024/01/31 10:37:35;;;;;;;;;;;;;;;-1.26;51.14;96137.75;6323309;28;19920;-67
2024/01/31 10:40:37;;;;;;;;;;;;;;;-1.52;51.59;96143.69;6322621;28;19924;-66
2024/01/31 10:43:43;;;;;;;;;;;;;;;-1.56;51.91;96142.91;6323498;28;20309;-68
2024/01/31 10:46:47;;;;;;;;;;;;;;;-1.51;51.67;96146.19;6287996;28;20023;-68
2024/01/31 10:49:48;;;;;;;;;;;;;;;-1.38;52.28;96150.13;6321546;28;19931;-68
2024/01/31 10:52:53;;;;;;;;;;;;;;;-1.24;51.92;96154.03;6322818;28;19924;-67
2024/01/31 10:55:57;;;;;;;;;;;;;;;-1.07;51.44;96161.28;6321955;28;19924;-67
2024/01/31 10:59:00;;;;;;;;;;;;;;;-0.80;50.69;96162.13;6322622;28;19931;-67
2024/01/31 11:02:02;;;;;;;;;;;;;;;-0.87;50.75;96164.06;6322683;28;19932;-67
2024/01/31 11:05:04;;;;;;;;;;;;;;;-1.08;50.86;96164.72;6322056;28;19950;-67
2024/01/31 11:08:20;;;;;;;;;;;;;;;-1.24;51.71;96174.69;6322575;28;19962;-69
2024/01/31 11:11:24;;;;;;;;;;;;;;;-1.37;51.67;96172.44;6321894;28;19931;-68
2024/01/31 11:14:29;;;;;;;;;;;;;;;-1.48;52.28;96171.91;6322314;28;20347;-67
2024/01/31 11:17:34;;;;;;;;;;;;;;;-1.56;52.65;96173.84;6321444;28;19924;-68
2024/01/31 11:20:44;;;;;;;;;;;;;;;-1.59;52.35;96186.84;6322209;28;20393;-68
2024/01/31 11:23:45;;;;;;;;;;;;;;;-1.54;53.07;96200.47;6321566;28;19931;-68
2024/01/31 11:26:49;;;;;;;;;;;;;;;-1.61;52.58;96196.38;6321442;28;20409;-67
2024/01/31 11:29:55;;;;;;;;;;;;;;;-1.69;53.17;96193.16;6321212;28;19959;-68
2024/01/31 11:32:56;;;;;;;;;;;;;;;-1.78;53.59;96198.56;6303371;28;20000;-67
2024/01/31 11:36:00;;;;;;;;;;;;;;;-1.83;53.44;96207.28;6321167;28;19924;-67
2024/01/31 11:39:05;;;;;;;;;;;;;;;-2.04;53.96;96207.81;6321375;28;19924;-67
2024/01/31 11:42:06;;;;;;;;;;;;;;;-2.12;54.11;96214.94;6321053;28;20274;-68
2024/01/31 11:45:07;;;;;;;;;;;;;;;-2.29;54.25;96223.94;6320984;28;19924;-67
2024/01/31 11:48:13;;;;;;;;;;;;;;;-2.40;54.36;96215.63;6321565;28;19924;-69
2024/01/31 11:51:17;;;;;;;;;;;;;;;-2.53;54.75;96219.38;6321719;28;20022;-67
2024/01/31 11:54:18;;;;;;;;;;;;;;;-2.64;54.61;96231.66;6319879;28;19931;-68
2024/01/31 11:57:19;;;;;;;;;;;;;;;-2.67;54.99;96232.56;6321401;28;19959;-69
2024/01/31 12:00:23;;;;;;;;;;;;;;;-2.60;54.92;96235.84;6320897;28;19924;-68
2024/01/31 12:03:32;;;;;;;;;;;;;;;-2.62;55.28;96250.50;6321360;28;19943;-69
2024/01/31 12:06:33;;;;;;;;;;;;;;;-2.72;55.53;96245.56;6302548;28;19931;-67
2024/01/31 12:09:34;;;;;;;;;;;;;;;-2.77;55.32;96254.28;6320350;28;20400;-67
2024/01/31 12:12:41;;;;;;;;;;;;;;;-2.84;55.76;96245.81;6320122;28;20366;-68
2024/01/31 12:15:42;;;;;;;;;;;;;;;-2.86;55.76;96249.31;6320478;28;19950;-68
2024/01/31 12:18:45;;;;;;;;;;;;;;;-2.91;56.03;96259.72;6319783;28;20026;-69
2024/01/31 12:21:46;;;;;;;;;;;;;;;-2.97;56.36;96260.69;6320305;28;19924;-67
2024/01/31 12:24:48;;;;;;;;;;;;;;;-3.13;56.23;96258.47;6319868;28;19924;-67
2024/01/31 12:27:51;;;;;;;;;;;;;;;-3.26;56.48;96257.88;6320466;28;20273;-67
2024/01/31 12:30:52;;;;;;;;;;;;;;;-3.39;56.44;96262.44;6319001;28;19939;-68
2024/01/31 12:33:53;;;;;;;;;;;;;;;-3.46;56.83;96278.84;6319326;28;19931;-68
2024/01/31 12:36:54;;;;;;;;;;;;;;;-3.54;57.05;96278.16;6301453;28;19924;-68
2024/01/31 12:39:58;;;;;;;;;;;;;;;-3.54;57.34;96279.00;6320098;28;19931;-68
2024/01/31 12:43:01;;;;;;;;;;;;;;;-3.64;57.08;96273.19;6319539;28;20389;-68
2024/01/31 12:46:03;;;;;;;;;;;;;;;-3.68;57.21;96280.97;6319507;28;19931;-68
2024/01/31 12:49:04;;;;;;;;;;;;;;;-3.75;57.54;96293.09;6319456;28;20328;-68
2024/01/31 12:52:08;;;;;;;;;;;;;;;-3.77;57.20;96296.56;6320016;28;19920;-68
2024/01/31 12:55:11;;;;;;;;;;;;;;;-3.81;57.88;96311.22;6318980;28;19924;-69
2024/01/31 12:58:17;;;;;;;;;;;;;;;-3.83;57.72;96312.94;6318814;28;19924;-68
2024/01/31 13:01:18;;;;;;;;;;;;;;;-3.86;57.50;96319.00;6319110;28;20049;-68
2024/01/31 13:04:21;;;;;;;;;;;;;;;-3.88;57.84;96315.63;6319056;28;20035;-67
2024/01/31 13:07:25;;;;;;;;;;;;;;;-3.87;57.99;96319.03;6318454;28;19931;-68
2024/01/31 13:10:28;;;;;;;;;;;;;;;-3.83;58.05;96318.09;6319240;28;20420;-67
2024/01/31 13:13:36;;;;;;;;;;;;;;;-3.90;58.05;96322.50;6319685;28;19920;-67
2024/01/31 13:16:39;;;;;;;;;;;;;;;-3.89;57.81;96331.06;6319488;28;19924;-69
2024/01/31 13:19:45;;;;;;;;;;;;;;;-3.94;58.04;96337.97;6319768;28;19924;-68
2024/01/31 13:22:50;;;;;;;;;;;;;;;-3.96;58.33;96337.16;6319620;28;19920;-68
2024/01/31 13:25:53;;;;;;;;;;;;;;;-3.99;58.32;96339.78;6319569;28;20015;-68
2024/01/31 13:28:56;;;;;;;;;;;;;;;-4.03;58.30;96346.69;6318925;28;19924;-68
2024/01/31 13:32:02;;;;;;;;;;;;;;;-4.05;58.59;96348.44;6319431;28;19924;-69
2024/01/31 13:35:03;;;;;;;;;;;;;;;-4.02;58.17;96352.69;6318485;28;19924;-67
2024/01/31 13:38:06;;;;;;;;;;;;;;;-4.08;58.50;96349.34;6318371;28;19924;-68
2024/01/31 13:41:07;;;;;;;;;;;;;;;-4.12;58.45;96352.84;6318599;28;20424;-68
2024/01/31 13:44:13;;;;;;;;;;;;;;;-4.11;58.37;96353.66;6320357;28;20385;-68
2024/01/31 13:47:16;;;;;;;;;;;;;;;-4.12;58.84;96362.25;6319103;28;20271;-67
2024/01/31 13:50:22;;;;;;;;;;;;;;;-4.10;58.43;96366.50;6319924;28;19924;-68
2024/01/31 13:53:24;;;;;;;;;;;;;;;-4.10;58.90;96376.78;6320027;28;20026;-67
2024/01/31 13:56:27;;;;;;;;;;;;;;;-4.14;58.97;96380.25;6319299;28;20006;-68
2024/01/31 13:59:31;;;;;;;;;;;;;;;-4.19;59.07;96394.91;6315824;28;19924;-67
2024/01/31 14:02:34;;;;;;;;;;;;;;;-4.17;58.96;96388.00;6343011;28;19967;-68
2024/01/31 14:05:38;;;;;;;;;;;;;;;-4.21;59.31;96394.09;6344800;28;20243;-67
2024/01/31 14:08:39;;;;;;;;;;;;;;;-4.17;59.45;96389.75;6342288;28;19924;-67
2024/01/31 14:11:44;;;;;;;;;;;;;;;-4.25;59.35;96392.41;6339924;28;20305;-68
2024/01/31 14:14:47;;;;;;;;;;;;;;;-4.25;59.61;96394.97;6336735;28;19930;-68
2024/01/31 14:17:50;;;;;;;;;;;;;;;-4.29;59.98;96403.63;6333373;28;19924;-69
2024/01/31 14:20:53;;;;;;;;;;;;;;;-4.29;59.85;96401.06;6337578;28;19923;-67
2024/01/31 14:23:57;;;;;;;;;;;;;;;-4.31;59.98;96392.50;6329587;28;19923;-68
2024/01/31 14:26:58;;;;;;;;;;;;;;;-4.30;60.05;96394.22;6326531;28;19924;-68
2024/01/31 14:29:59;;;;;;;;;;;;;;;-4.41;59.99;96421.78;6326158;28;19931;-69
2024/01/31 14:33:05;;;;;;;;;;;;;;;-4.49;59.80;96413.31;6327154;28;20331;-68
2024/01/31 14:36:07;;;;;;;;;;;;;;;-4.63;60.18;96416.91;6325981;28;20010;-68
2024/01/31 14:39:09;;;;;;;;;;;;;;;-4.73;60.63;96412.75;6326398;28;19931;-68
2024/01/31 14:42:10;;;;;;;;;;;;;;;-4.82;60.76;96423.13;6325837;28;19931;-68
2024/01/31 14:45:11;;;;;;;;;;;;;;;-4.93;61.04;96427.53;6326886;28;20313;-68
2024/01/31 14:48:17;;;;;;;;;;;;;;;-4.99;61.26;96429.28;6326722;28;20297;-67
2024/01/31 14:51:21;;;;;;;;;;;;;;;-5.09;61.69;96432.84;6326187;28;19931;-68
2024/01/31 14:54:26;;;;;;;;;;;;;;;-5.11;61.62;96434.56;6326326;28;20622;-70
2024/01/31 14:57:32;;;;;;;;;;;;;;;-5.01;61.58;96437.88;6326653;28;20302;-68
2024/01/31 15:00:35;;;;;;;;;;;;;;;-4.94;61.34;96441.25;6326690;28;20309;-68
2024/01/31 15:03:38;;;;;;;;;;;;;;;-4.83;61.60;96439.41;6326823;28;19923;-68
2024/01/31 15:06:39;;;;;;;;;;;;;;;-4.71;61.76;96444.38;6325666;28;20017;-69
2024/01/31 15:09:43;;;;;;;;;;;;;;;-4.60;61.45;96457.94;6326604;28;19928;-68
2024/01/31 15:12:44;;;;;;;;;;;;;;;-4.54;61.88;96452.72;6323409;28;20388;-68
2024/01/31 15:15:47;;;;;;;;;;;;;;;-4.45;61.20;96458.63;6304708;28;19924;-68
2024/01/31 15:18:51;;;;;;;;;;;;;;;-4.40;61.49;96459.41;6322591;28;19920;-69
2024/01/31 15:21:54;;;;;;;;;;;;;;;-4.41;61.39;96462.88;6322680;28;20023;-67
2024/01/31 15:24:58;;;;;;;;;;;;;;;-4.36;60.98;96472.22;6321992;28;19924;-68
2024/01/31 15:27:59;;;;;;;;;;;;;;;-4.38;61.68;96479.06;6321323;28;20430;-68
2024/01/31 15:31:05;;;;;;;;;;;;;;;-4.34;61.97;96480.72;6322059;28;19924;-68
2024/01/31 15:34:07;;;;;;;;;;;;;;;-4.30;62.03;96476.41;6321279;28;20361;-68
2024/01/31 15:37:10;;;;;;;;;;;;;;;-4.25;61.92;96474.63;6321992;28;19923;-69
2024/01/31 15:40:11;;;;;;;;;;;;;;;-4.21;62.01;96473.72;6321816;28;20241;-70
2024/01/31 15:43:18;;;;;;;;;;;;;;;-4.19;62.23;96474.56;6321792;28;19924;-69
2024/01/31 15:46:23;;;;;;;;;;;;;;;-4.16;61.93;96492.50;6321868;28;19935;-68
2024/01/31 15:49:30;;;;;;;;;;;;;;;-4.13;61.93;96486.47;6320155;28;19992;-69
2024/01/31 15:52:35;;;;;;;;;;;;;;;-4.11;61.80;96493.25;6321901;28;19924;-69
2024/01/31 15:55:41;;;;;;;;;;;;;;;-4.09;61.58;96496.66;6321344;28;20491;-68